Time;durP1;ratioP1;P1;durP2;ratioP2;P2;SDS_P1;SDS_P2;PMS_P1;PMS_P2;Temp;Humidity;BMP_temperature;BMP_pressure;BME280_temperature;BME280_humidity;BME280_pressure;Samples;Min_cycle;Max_cycle;Signal;HPM_P1;HPM_P2
2021/01/15 00:02:06;;;;;;;6.93;5.80;;;;;;;;;;4830394;29;20223;-92
2021/01/15 00:04:34;;;;;;;7.75;5.63;;;;;;;;;;4830042;29;20217;-91
2021/01/15 00:07:05;;;;;;;7.03;6.32;;;;;;;;;;4830640;29;20206;-91
2021/01/15 00:09:32;;;;;;;11.75;6.80;;;;;;;;;;4830585;29;20206;-89
2021/01/15 00:11:59;;;;;;;11.20;7.93;;;;;;;;;;4829755;29;20232;-91
2021/01/15 00:14:26;;;;;;;10.20;7.65;;;;;;;;;;4830146;29;20237;-90
2021/01/15 00:16:54;;;;;;;11.25;8.63;;;;;;;;;;4829720;29;20509;-89
2021/01/15 00:19:21;;;;;;;11.23;9.07;;;;;;;;;;4829903;29;20210;-91
2021/01/15 00:21:49;;;;;;;11.80;8.00;;;;;;;;;;4830214;29;20198;-90
2021/01/15 00:24:18;;;;;;;10.15;8.68;;;;;;;;;;4829674;29;20239;-91
2021/01/15 00:26:46;;;;;;;13.93;8.23;;;;;;;;;;4829856;29;20208;-91
2021/01/15 00:29:14;;;;;;;11.90;8.85;;;;;;;;;;4830163;29;20459;-90
2021/01/15 00:31:43;;;;;;;9.30;7.35;;;;;;;;;;4829693;29;20212;-90
2021/01/15 00:34:12;;;;;;;10.88;8.18;;;;;;;;;;4829449;29;20615;-92
2021/01/15 00:36:40;;;;;;;11.02;8.25;;;;;;;;;;4814755;29;20343;-92
2021/01/15 00:39:09;;;;;;;11.82;9.63;;;;;;;;;;4829438;29;20510;-90
2021/01/15 00:41:37;;;;;;;10.80;9.40;;;;;;;;;;4829679;29;20620;-90
2021/01/15 00:44:05;;;;;;;10.38;8.63;;;;;;;;;;4829656;29;20194;-89
2021/01/15 00:46:33;;;;;;;10.95;9.32;;;;;;;;;;4828847;29;20221;-91
2021/01/15 00:49:01;;;;;;;11.27;8.48;;;;;;;;;;4829640;29;20210;-91
2021/01/15 00:51:28;;;;;;;13.32;9.48;;;;;;;;;;4829716;29;20275;-90
2021/01/15 00:53:55;;;;;;;11.02;9.77;;;;;;;;;;4829156;29;20272;-91
2021/01/15 00:56:24;;;;;;;10.95;9.05;;;;;;;;;;4829563;29;20182;-91
2021/01/15 00:58:52;;;;;;;10.63;8.13;;;;;;;;;;4837915;29;20189;-92
2021/01/15 01:01:21;;;;;;;13.48;8.70;;;;;;;;;;4846473;29;20200;-91
2021/01/15 01:03:49;;;;;;;12.10;8.85;;;;;;;;;;4846555;29;20464;-92
2021/01/15 01:06:18;;;;;;;13.45;9.27;;;;;;;;;;4836561;29;20202;-91
2021/01/15 01:08:45;;;;;;;10.77;7.88;;;;;;;;;;4827015;29;20201;-90
2021/01/15 01:11:13;;;;;;;12.43;8.20;;;;;;;;;;4828460;29;20198;-92
2021/01/15 01:13:41;;;;;;;10.40;8.50;;;;;;;;;;4829055;29;20238;-90
2021/01/15 01:16:09;;;;;;;11.07;8.15;;;;;;;;;;4829058;29;20241;-89
2021/01/15 01:18:36;;;;;;;10.70;8.60;;;;;;;;;;4829165;29;20462;-91
2021/01/15 01:21:03;;;;;;;11.45;8.95;;;;;;;;;;4829222;29;20198;-88
2021/01/15 01:23:30;;;;;;;9.75;8.30;;;;;;;;;;4829026;29;20202;-92
2021/01/15 01:25:57;;;;;;;10.20;8.32;;;;;;;;;;4828596;29;20196;-90
2021/01/15 01:28:24;;;;;;;10.65;8.40;;;;;;;;;;4828847;29;20191;-89
2021/01/15 01:30:52;;;;;;;13.77;10.75;;;;;;;;;;4829025;29;20212;-90
2021/01/15 01:33:19;;;;;;;11.02;8.38;;;;;;;;;;4828843;29;20545;-89
2021/01/15 01:35:47;;;;;;;11.20;8.48;;;;;;;;;;4828909;29;20214;-90
2021/01/15 01:38:14;;;;;;;11.23;7.97;;;;;;;;;;4829653;29;20206;-93
2021/01/15 01:40:41;;;;;;;12.55;8.90;;;;;;;;;;4829061;29;20285;-89
2021/01/15 01:43:07;;;;;;;10.43;8.10;;;;;;;;;;4828536;29;20198;-89
2021/01/15 01:45:34;;;;;;;11.15;8.20;;;;;;;;;;4828711;29;20209;-88
2021/01/15 01:48:03;;;;;;;11.90;8.15;;;;;;;;;;4828749;29;20209;-88
2021/01/15 01:50:31;;;;;;;9.52;7.50;;;;;;;;;;4828748;29;20186;-91
2021/01/15 01:52:58;;;;;;;8.25;7.00;;;;;;;;;;4828806;29;20316;-91
2021/01/15 01:55:25;;;;;;;9.90;7.53;;;;;;;;;;4828809;29;20317;-90
2021/01/15 01:57:52;;;;;;;8.80;6.63;;;;;;;;;;4830923;29;20442;-89
2021/01/15 02:00:20;;;;;;;8.48;6.93;;;;;;;;;;4832281;29;20537;-90
2021/01/15 02:02:47;;;;;;;9.55;6.97;;;;;;;;;;4832352;29;20448;-90
2021/01/15 02:05:15;;;;;;;10.73;7.85;;;;;;;;;;4832458;29;20196;-89
2021/01/15 02:07:42;;;;;;;8.07;7.28;;;;;;;;;;4831865;29;20202;-90
2021/01/15 02:10:15;;;;;;;9.88;8.40;;;;;;;;;;4832040;29;20209;-89
2021/01/15 02:12:54;;;;;;;9.10;7.32;;;;;;;;;;4831641;29;20190;-89
2021/01/15 02:15:25;;;;;;;8.77;6.55;;;;;;;;;;4831683;29;20222;-89
2021/01/15 02:17:56;;;;;;;9.27;7.05;;;;;;;;;;4831604;29;20229;-89
2021/01/15 02:20:45;;;;;;;10.52;7.13;;;;;;;;;;4831435;29;20257;-91
2021/01/15 02:23:15;;;;;;;8.95;6.00;;;;;;;;;;4831965;29;20210;-90
2021/01/15 02:26:26;;;;;;;8.00;6.40;;;;;;;;;;4831594;29;20200;-90
2021/01/15 02:29:13;;;;;;;7.47;6.18;;;;;;;;;;4831724;29;20182;-90
2021/01/15 02:32:39;;;;;;;6.38;5.25;;;;;;;;;;4831652;29;20198;-90
2021/01/15 02:35:49;;;;;;;16.98;7.75;;;;;;;;;;4829954;29;20226;-89
2021/01/15 02:38:31;;;;;;;9.30;7.07;;;;;;;;;;4823368;29;20216;-89
2021/01/15 02:41:22;;;;;;;9.23;6.28;;;;;;;;;;4831541;29;20205;-89
2021/01/15 02:43:55;;;;;;;8.55;5.75;;;;;;;;;;4831548;29;20205;-90
2021/01/15 02:46:32;;;;;;;8.38;5.57;;;;;;;;;;4831416;29;20240;-90
2021/01/15 02:49:00;;;;;;;6.93;6.03;;;;;;;;;;4831028;29;20205;-89
2021/01/15 02:51:27;;;;;;;8.38;6.32;;;;;;;;;;4831266;29;20294;-90
2021/01/15 02:53:54;;;;;;;8.18;5.45;;;;;;;;;;4831122;29;20205;-89
2021/01/15 02:56:21;;;;;;;7.60;5.50;;;;;;;;;;4799552;29;20218;-90
2021/01/15 02:58:49;;;;;;;8.88;5.88;;;;;;;;;;4831745;29;20201;-87
2021/01/15 03:01:16;;;;;;;8.40;6.28;;;;;;;;;;4831506;29;20443;-88
2021/01/15 03:03:50;;;;;;;7.72;6.07;;;;;;;;;;4831734;29;20198;-89
2021/01/15 03:06:24;;;;;;;8.20;6.85;;;;;;;;;;4830962;29;20190;-90
2021/01/15 03:08:51;;;;;;;10.13;7.95;;;;;;;;;;4830210;29;20278;-89
2021/01/15 03:11:19;;;;;;;9.40;7.13;;;;;;;;;;4831052;29;20306;-89
2021/01/15 03:13:46;;;;;;;7.85;6.55;;;;;;;;;;4830891;29;20216;-88
2021/01/15 03:16:15;;;;;;;9.82;7.68;;;;;;;;;;4830595;29;20248;-90
2021/01/15 03:18:43;;;;;;;8.73;7.68;;;;;;;;;;4830918;29;20190;-90
2021/01/15 03:21:10;;;;;;;10.30;7.38;;;;;;;;;;4830770;29;20194;-88
2021/01/15 03:23:38;;;;;;;8.75;7.13;;;;;;;;;;4830693;29;20206;-88
2021/01/15 03:26:07;;;;;;;8.05;6.97;;;;;;;;;;4830162;29;20496;-88
2021/01/15 03:28:34;;;;;;;8.77;7.30;;;;;;;;;;4830637;29;20212;-88
2021/01/15 03:31:01;;;;;;;12.55;7.97;;;;;;;;;;4829975;29;20219;-88
2021/01/15 03:33:28;;;;;;;11.38;7.47;;;;;;;;;;4830461;29;20281;-88
2021/01/15 03:35:54;;;;;;;8.70;7.80;;;;;;;;;;4830185;29;20206;-89
2021/01/15 03:38:22;;;;;;;10.85;8.40;;;;;;;;;;4830519;29;20469;-89
2021/01/15 03:40:50;;;;;;;9.93;6.95;;;;;;;;;;4830509;29;20200;-88
2021/01/15 03:43:19;;;;;;;10.50;8.98;;;;;;;;;;4830500;29;20200;-88
2021/01/15 03:45:47;;;;;;;9.32;7.03;;;;;;;;;;4830466;29;20198;-88
2021/01/15 03:48:15;;;;;;;10.98;9.00;;;;;;;;;;4830447;29;20202;-89
2021/01/15 03:50:43;;;;;;;13.95;8.13;;;;;;;;;;4829913;29;20565;-89
2021/01/15 03:53:11;;;;;;;14.98;8.57;;;;;;;;;;4830324;29;20198;-89
2021/01/15 03:55:37;;;;;;;12.40;9.13;;;;;;;;;;4830013;29;20632;-89
2021/01/15 03:58:05;;;;;;;10.50;8.02;;;;;;;;;;4830247;29;20205;-89
2021/01/15 04:00:32;;;;;;;14.55;7.97;;;;;;;;;;4829699;29;20206;-89
2021/01/15 04:02:59;;;;;;;11.52;9.02;;;;;;;;;;4799026;29;20216;-90
2021/01/15 04:05:26;;;;;;;10.75;8.23;;;;;;;;;;4829953;29;20190;-89
2021/01/15 04:07:53;;;;;;;10.15;8.52;;;;;;;;;;4830186;29;20194;-90
2021/01/15 04:10:21;;;;;;;10.30;8.18;;;;;;;;;;4829425;29;20202;-89
2021/01/15 04:12:48;;;;;;;14.82;8.20;;;;;;;;;;4830102;29;20186;-89
2021/01/15 04:15:18;;;;;;;12.27;8.60;;;;;;;;;;4830050;29;20226;-89
2021/01/15 04:17:45;;;;;;;12.15;8.50;;;;;;;;;;4829571;29;20230;-89
2021/01/15 04:20:15;;;;;;;16.27;8.95;;;;;;;;;;4828984;29;20190;-89
2021/01/15 04:22:44;;;;;;;10.00;8.70;;;;;;;;;;4829820;29;20201;-89
2021/01/15 04:25:12;;;;;;;12.05;8.18;;;;;;;;;;4829666;29;20246;-89
2021/01/15 04:27:40;;;;;;;10.70;8.77;;;;;;;;;;4829944;29;20585;-89
2021/01/15 04:30:10;;;;;;;11.50;8.30;;;;;;;;;;4830084;29;20182;-89
2021/01/15 04:32:44;;;;;;;10.25;8.27;;;;;;;;;;4830050;29;20198;-90
2021/01/15 04:35:13;;;;;;;11.05;8.35;;;;;;;;;;4829832;29;20281;-89
2021/01/15 04:37:40;;;;;;;11.55;7.50;;;;;;;;;;4829835;29;20206;-89
2021/01/15 04:40:09;;;;;;;9.20;7.45;;;;;;;;;;4829728;29;20190;-90
2021/01/15 04:42:41;;;;;;;8.48;6.80;;;;;;;;;;4830236;29;20449;-90
2021/01/15 04:45:11;;;;;;;11.75;8.13;;;;;;;;;;4830169;29;20202;-90
2021/01/15 04:47:43;;;;;;;10.63;7.90;;;;;;;;;;4829366;29;20232;-90
2021/01/15 04:50:15;;;;;;;9.05;7.35;;;;;;;;;;4829429;29;20196;-90
2021/01/15 04:52:47;;;;;;;9.63;6.72;;;;;;;;;;4829341;29;20553;-89
2021/01/15 04:55:19;;;;;;;9.63;7.65;;;;;;;;;;4829858;29;20217;-89
2021/01/15 04:57:51;;;;;;;9.85;7.40;;;;;;;;;;4829566;29;20229;-91
2021/01/15 05:00:21;;;;;;;9.73;6.65;;;;;;;;;;4829825;29;20213;-90
2021/01/15 05:02:50;;;;;;;13.68;8.65;;;;;;;;;;4829429;29;20253;-90
2021/01/15 05:05:23;;;;;;;11.18;8.07;;;;;;;;;;4829717;29;20514;-90
2021/01/15 05:08:10;;;;;;;11.95;8.38;;;;;;;;;;4829240;29;20549;-89
2021/01/15 05:10:46;;;;;;;10.00;7.97;;;;;;;;;;4829799;29;20202;-90
2021/01/15 05:13:14;;;;;;;11.35;8.82;;;;;;;;;;4829308;29;20193;-90
2021/01/15 05:15:44;;;;;;;9.40;8.35;;;;;;;;;;4828893;29;20210;-89
2021/01/15 05:18:13;;;;;;;12.02;9.25;;;;;;;;;;4829288;29;20186;-90
2021/01/15 05:20:40;;;;;;;9.75;7.07;;;;;;;;;;4829273;29;20194;-89
2021/01/15 05:23:09;;;;;;;11.82;8.35;;;;;;;;;;4828849;29;20564;-88
2021/01/15 05:25:41;;;;;;;9.95;8.27;;;;;;;;;;4829033;29;20217;-89
2021/01/15 05:28:08;;;;;;;16.20;10.52;;;;;;;;;;4828885;29;20584;-89
2021/01/15 05:30:38;;;;;;;12.05;9.57;;;;;;;;;;4829131;29;20214;-89
2021/01/15 05:33:13;;;;;;;17.05;11.82;;;;;;;;;;4831704;29;20193;-89
2021/01/15 05:35:46;;;;;;;18.98;13.15;;;;;;;;;;4832876;29;20229;-88
2021/01/15 05:38:16;;;;;;;21.90;13.70;;;;;;;;;;4832765;29;20354;-92
2021/01/15 05:40:46;;;;;;;19.08;13.23;;;;;;;;;;4814154;29;20253;-93
2021/01/15 05:43:22;;;;;;;21.55;15.18;;;;;;;;;;4815077;29;20554;-92
2021/01/15 05:46:10;;;;;;;18.83;13.25;;;;;;;;;;4814014;29;20252;-93
2021/01/15 05:48:41;;;;;;;19.83;12.55;;;;;;;;;;4814250;29;20215;-92
2021/01/15 05:51:26;;;;;;;26.45;15.68;;;;;;;;;;4814357;29;20261;-92
2021/01/15 05:53:53;;;;;;;24.85;15.70;;;;;;;;;;4814658;29;20211;-93
2021/01/15 05:56:20;;;;;;;24.38;14.95;;;;;;;;;;4814389;29;20215;-93
2021/01/15 05:59:03;;;;;;;30.33;17.00;;;;;;;;;;4786497;29;20217;-93
2021/01/15 06:01:57;;;;;;;30.60;15.90;;;;;;;;;;4814515;29;20217;-92
2021/01/15 06:04:36;;;;;;;25.52;16.30;;;;;;;;;;4759300;30;20553;-94
2021/01/15 06:07:19;;;;;;;25.33;15.40;;;;;;;;;;4759646;30;20216;-92
2021/01/15 06:09:48;;;;;;;30.05;17.45;;;;;;;;;;4772049;30;20642;-92
2021/01/15 06:12:17;;;;;;;27.27;18.08;;;;;;;;;;4776530;30;20206;-92
2021/01/15 06:14:56;;;;;;;27.38;15.38;;;;;;;;;;4759354;30;20572;-92
2021/01/15 06:17:24;;;;;;;27.65;18.52;;;;;;;;;;4772903;30;20283;-91
2021/01/15 06:19:54;;;;;;;26.88;16.80;;;;;;;;;;4787743;30;20192;-93
2021/01/15 06:22:29;;;;;;;23.70;15.55;;;;;;;;;;4794521;30;20188;-93
2021/01/15 06:25:07;;;;;;;28.15;18.13;;;;;;;;;;4795218;30;20218;-90
2021/01/15 06:27:37;;;;;;;26.13;16.55;;;;;;;;;;4794796;30;20348;-91
2021/01/15 06:30:12;;;;;;;23.38;14.70;;;;;;;;;;4795248;30;20203;-91
2021/01/15 06:32:40;;;;;;;27.17;17.17;;;;;;;;;;4794531;30;20211;-92
2021/01/15 06:35:09;;;;;;;24.88;17.38;;;;;;;;;;4794214;30;20207;-93
2021/01/15 06:37:37;;;;;;;28.92;18.48;;;;;;;;;;4794163;30;20214;-93
2021/01/15 06:40:10;;;;;;;28.60;18.63;;;;;;;;;;4811449;29;20214;-92
2021/01/15 06:42:47;;;;;;;26.25;17.02;;;;;;;;;;4831683;29;20393;-92
2021/01/15 06:45:19;;;;;;;25.27;15.45;;;;;;;;;;4831303;29;20193;-90
2021/01/15 06:47:47;;;;;;;27.45;17.30;;;;;;;;;;4831126;29;20608;-93
2021/01/15 06:50:18;;;;;;;22.15;15.35;;;;;;;;;;4837419;29;20240;-91
2021/01/15 06:52:51;;;;;;;24.02;14.15;;;;;;;;;;4840876;29;20273;-91
2021/01/15 06:55:20;;;;;;;23.77;15.40;;;;;;;;;;4834659;29;20206;-93
2021/01/15 06:57:50;;;;;;;24.90;16.58;;;;;;;;;;4832265;29;20226;-92
2021/01/15 07:00:23;;;;;;;24.23;16.10;;;;;;;;;;4831470;29;20186;-93
2021/01/15 07:03:27;;;;;;;21.75;15.20;;;;;;;;;;4831759;29;20213;-93
2021/01/15 07:05:55;;;;;;;26.10;17.10;;;;;;;;;;4832212;29;20275;-93
2021/01/15 07:08:24;;;;;;;27.23;17.55;;;;;;;;;;4831488;29;20251;-93
2021/01/15 07:10:51;;;;;;;25.15;16.98;;;;;;;;;;4832043;29;20197;-93
2021/01/15 07:13:28;;;;;;;21.52;15.60;;;;;;;;;;4831819;29;20640;-92
2021/01/15 07:15:56;;;;;;;32.45;16.23;;;;;;;;;;4830815;29;20233;-92
2021/01/15 07:18:33;;;;;;;28.92;16.48;;;;;;;;;;4831070;29;20587;-91
2021/01/15 07:21:08;;;;;;;26.10;16.52;;;;;;;;;;4831413;29;20242;-90
2021/01/15 07:23:53;;;;;;;25.40;17.17;;;;;;;;;;4831559;29;20220;-91
2021/01/15 07:26:21;;;;;;;24.40;15.20;;;;;;;;;;4830857;29;20262;-90
2021/01/15 07:28:49;;;;;;;27.90;16.35;;;;;;;;;;4831255;29;20206;-91
2021/01/15 07:31:23;;;;;;;26.83;17.20;;;;;;;;;;4830910;29;20186;-92
2021/01/15 07:33:57;;;;;;;23.05;16.67;;;;;;;;;;4830656;29;20214;-90
2021/01/15 07:36:36;;;;;;;20.38;14.85;;;;;;;;;;4828630;29;20528;-90
2021/01/15 07:39:12;;;;;;;23.40;17.13;;;;;;;;;;4830792;29;20262;-89
2021/01/15 07:41:45;;;;;;;26.52;15.75;;;;;;;;;;4831312;29;20459;-90
2021/01/15 07:44:38;;;;;;;25.60;15.85;;;;;;;;;;4831223;29;20214;-90
2021/01/15 07:47:12;;;;;;;24.50;16.30;;;;;;;;;;4830952;29;20225;-91
2021/01/15 07:49:47;;;;;;;21.25;15.15;;;;;;;;;;4830771;29;20194;-90
2021/01/15 07:52:15;;;;;;;20.92;13.88;;;;;;;;;;4831147;29;20212;-90
2021/01/15 07:55:00;;;;;;;21.23;14.82;;;;;;;;;;4830288;29;20254;-90
2021/01/15 07:57:31;;;;;;;21.67;14.02;;;;;;;;;;4830782;29;20206;-90
2021/01/15 08:00:13;;;;;;;18.23;12.88;;;;;;;;;;4830733;29;20202;-89
2021/01/15 08:02:41;;;;;;;20.67;14.32;;;;;;;;;;4829519;29;20227;-90
2021/01/15 08:05:10;;;;;;;17.42;13.93;;;;;;;;;;4830313;29;20572;-91
2021/01/15 08:07:37;;;;;;;17.58;11.95;;;;;;;;;;4830230;29;20194;-91
2021/01/15 08:10:09;;;;;;;21.08;13.65;;;;;;;;;;4830681;29;20206;-90
2021/01/15 08:12:40;;;;;;;20.48;15.32;;;;;;;;;;4830572;29;20222;-92
2021/01/15 08:15:29;;;;;;;18.90;13.60;;;;;;;;;;4830344;29;20206;-90
2021/01/15 08:17:56;;;;;;;16.75;12.93;;;;;;;;;;4829847;29;20309;-91
2021/01/15 08:20:23;;;;;;;17.60;12.20;;;;;;;;;;4830049;29;20283;-90
2021/01/15 08:22:52;;;;;;;17.92;11.77;;;;;;;;;;4830593;29;20290;-89
2021/01/15 08:25:26;;;;;;;15.50;11.68;;;;;;;;;;4830031;29;20186;-89
2021/01/15 08:27:53;;;;;;;19.77;13.43;;;;;;;;;;4830468;29;20297;-89
2021/01/15 08:30:21;;;;;;;21.58;14.13;;;;;;;;;;4830283;29;20246;-88
2021/01/15 08:32:48;;;;;;;17.35;12.88;;;;;;;;;;4811472;29;20210;-91
2021/01/15 08:35:24;;;;;;;15.85;12.55;;;;;;;;;;4812215;29;20214;-90
2021/01/15 08:38:01;;;;;;;15.82;12.45;;;;;;;;;;4811445;29;20222;-90
2021/01/15 08:40:30;;;;;;;14.73;12.38;;;;;;;;;;4811963;29;20221;-90
2021/01/15 08:42:58;;;;;;;16.17;11.65;;;;;;;;;;4811436;29;20331;-89
2021/01/15 08:45:27;;;;;;;17.67;13.32;;;;;;;;;;4811337;29;20267;-90
2021/01/15 08:47:55;;;;;;;15.93;12.65;;;;;;;;;;4814773;29;20267;-90
2021/01/15 08:50:23;;;;;;;14.48;11.75;;;;;;;;;;4829310;29;20190;-87
2021/01/15 08:52:51;;;;;;;18.02;12.52;;;;;;;;;;4877514;24;20666;-87
2021/01/15 08:55:19;;;;;;;15.95;12.85;;;;;;;;;;4826095;29;20292;-87
2021/01/15 08:57:48;;;;;;;14.73;11.45;;;;;;;;;;4880099;24;20252;-87
2021/01/15 09:00:18;;;;;;;15.88;12.68;;;;;;;;;;4814324;29;20210;-88
2021/01/15 09:02:46;;;;;;;15.05;11.10;;;;;;;;;;4811075;29;20190;-87
2021/01/15 09:05:16;;;;;;;16.50;12.07;;;;;;;;;;4830828;29;20208;-89
2021/01/15 09:07:45;;;;;;;13.77;11.13;;;;;;;;;;4850684;29;20215;-87
2021/01/15 09:10:14;;;;;;;15.48;11.40;;;;;;;;;;4835312;29;20194;-87
2021/01/15 09:12:44;;;;;;;17.67;10.75;;;;;;;;;;4834928;29;20182;-87
2021/01/15 09:15:20;;;;;;;14.43;10.13;;;;;;;;;;4835311;29;20204;-87
2021/01/15 09:17:48;;;;;;;11.77;9.82;;;;;;;;;;4835104;29;20240;-87
2021/01/15 09:20:17;;;;;;;14.18;11.65;;;;;;;;;;4850814;29;20275;-87
2021/01/15 09:22:44;;;;;;;12.98;10.23;;;;;;;;;;4854115;29;20330;-88
2021/01/15 09:25:13;;;;;;;14.98;10.98;;;;;;;;;;4853444;29;20551;-87
2021/01/15 09:27:41;;;;;;;14.68;11.75;;;;;;;;;;4853746;29;20599;-88
2021/01/15 09:30:10;;;;;;;15.70;12.38;;;;;;;;;;4853700;29;20203;-88
2021/01/15 09:32:40;;;;;;;11.80;9.40;;;;;;;;;;4849797;29;20209;-87
2021/01/15 09:35:09;;;;;;;14.05;10.52;;;;;;;;;;4835316;29;20190;-86
2021/01/15 09:37:36;;;;;;;12.50;10.15;;;;;;;;;;4834743;29;20214;-91
2021/01/15 09:40:05;;;;;;;14.70;10.52;;;;;;;;;;4835070;29;20198;-88
2021/01/15 09:42:32;;;;;;;13.45;10.25;;;;;;;;;;4834917;29;20217;-87
2021/01/15 09:45:00;;;;;;;12.35;9.60;;;;;;;;;;4834427;29;20201;-86
2021/01/15 09:47:29;;;;;;;12.00;8.80;;;;;;;;;;4849683;29;20204;-90
2021/01/15 09:49:56;;;;;;;12.40;8.98;;;;;;;;;;4848453;29;20204;-90
2021/01/15 09:52:23;;;;;;;11.10;8.90;;;;;;;;;;4849640;29;20201;-88
2021/01/15 09:54:50;;;;;;;14.27;10.43;;;;;;;;;;4852316;29;20193;-88
2021/01/15 09:57:17;;;;;;;11.05;9.20;;;;;;;;;;4834649;29;20266;-89
2021/01/15 09:59:44;;;;;;;12.30;9.55;;;;;;;;;;4834782;29;20186;-87
2021/01/15 10:02:12;;;;;;;13.07;10.75;;;;;;;;;;4833933;29;20189;-87
2021/01/15 10:04:38;;;;;;;12.38;9.60;;;;;;;;;;4834639;29;20284;-87
2021/01/15 10:07:06;;;;;;;12.55;9.73;;;;;;;;;;4834406;29;20549;-90
2021/01/15 10:09:33;;;;;;;12.05;9.27;;;;;;;;;;4834761;29;20204;-87
2021/01/15 10:12:00;;;;;;;12.00;9.73;;;;;;;;;;4834307;29;20548;-88
2021/01/15 10:14:27;;;;;;;11.13;9.30;;;;;;;;;;4834715;29;20197;-87
2021/01/15 10:16:53;;;;;;;13.18;10.05;;;;;;;;;;4851896;29;20236;-89
2021/01/15 10:19:22;;;;;;;12.02;9.15;;;;;;;;;;4850000;29;20224;-86
2021/01/15 10:21:49;;;;;;;11.98;10.07;;;;;;;;;;4846939;29;20232;-88
2021/01/15 10:24:16;;;;;;;12.98;9.70;;;;;;;;;;4831568;29;20201;-87
2021/01/15 10:26:43;;;;;;;16.77;11.98;;;;;;;;;;4831488;29;20210;-85
2021/01/15 10:29:11;;;;;;;16.27;12.32;;;;;;;;;;4830899;29;20232;-87
2021/01/15 10:31:44;;;;;;;14.48;10.15;;;;;;;;;;4831188;29;20223;-86
2021/01/15 10:34:11;;;;;;;10.32;8.20;;;;;;;;;;4829977;29;20202;-87
2021/01/15 10:36:42;;;;;;;10.98;9.13;;;;;;;;;;4831305;29;20201;-87
2021/01/15 10:39:09;;;;;;;9.68;8.32;;;;;;;;;;4831111;29;20225;-89
2021/01/15 10:41:37;;;;;;;9.77;7.53;;;;;;;;;;4831030;29;20194;-88
2021/01/15 10:44:07;;;;;;;13.40;9.55;;;;;;;;;;4831477;29;20206;-88
2021/01/15 10:46:36;;;;;;;12.27;10.35;;;;;;;;;;4831045;29;20250;-87
2021/01/15 10:49:04;;;;;;;11.60;9.00;;;;;;;;;;4831203;29;20210;-87
2021/01/15 10:51:32;;;;;;;11.80;9.27;;;;;;;;;;4813105;29;20213;-88
2021/01/15 10:54:00;;;;;;;11.98;9.85;;;;;;;;;;4813058;29;20252;-88
2021/01/15 10:56:35;;;;;;;11.13;9.52;;;;;;;;;;4813260;29;20249;-88
2021/01/15 10:59:02;;;;;;;13.30;10.20;;;;;;;;;;4812684;29;20250;-88
2021/01/15 11:01:35;;;;;;;11.23;9.13;;;;;;;;;;4813675;29;20198;-88
2021/01/15 11:04:03;;;;;;;12.05;9.55;;;;;;;;;;4831273;29;20248;-86
2021/01/15 11:06:30;;;;;;;12.48;10.48;;;;;;;;;;4830675;29;20208;-86
2021/01/15 11:08:57;;;;;;;12.05;10.20;;;;;;;;;;4828525;29;20202;-89
2021/01/15 11:11:25;;;;;;;13.90;11.07;;;;;;;;;;4830295;29;20202;-92
2021/01/15 11:13:52;;;;;;;15.43;11.63;;;;;;;;;;4826975;29;20233;-89
2021/01/15 11:16:19;;;;;;;15.93;10.77;;;;;;;;;;4827749;29;20275;-88
2021/01/15 11:18:47;;;;;;;11.30;9.57;;;;;;;;;;4830605;29;20224;-89
2021/01/15 11:21:14;;;;;;;15.43;10.65;;;;;;;;;;4829778;29;20592;-89
2021/01/15 11:23:41;;;;;;;10.70;9.52;;;;;;;;;;4829240;29;20535;-90
2021/01/15 11:26:08;;;;;;;14.57;10.10;;;;;;;;;;4830323;29;20198;-89
2021/01/15 11:28:36;;;;;;;14.15;10.15;;;;;;;;;;4836093;29;20505;-90
2021/01/15 11:31:03;;;;;;;13.02;10.48;;;;;;;;;;4832770;29;20202;-89
2021/01/15 11:33:31;;;;;;;15.80;11.60;;;;;;;;;;4830889;29;20198;-90
2021/01/15 11:36:01;;;;;;;16.95;11.95;;;;;;;;;;4829495;29;20323;-90
2021/01/15 11:38:29;;;;;;;12.13;9.50;;;;;;;;;;4830342;29;20230;-90
2021/01/15 11:40:56;;;;;;;12.48;10.52;;;;;;;;;;4830658;29;20182;-91
2021/01/15 11:43:23;;;;;;;12.70;11.27;;;;;;;;;;4830475;29;20191;-89
2021/01/15 11:45:50;;;;;;;13.90;9.82;;;;;;;;;;4799435;29;20250;-90
2021/01/15 11:48:17;;;;;;;13.00;10.25;;;;;;;;;;4830328;29;20266;-88
2021/01/15 11:50:44;;;;;;;11.32;8.82;;;;;;;;;;4830291;29;20277;-90
2021/01/15 11:53:11;;;;;;;14.75;10.35;;;;;;;;;;4830824;29;20266;-92
2021/01/15 11:55:38;;;;;;;12.77;9.98;;;;;;;;;;4830677;29;20326;-90
2021/01/15 11:58:05;;;;;;;13.60;9.90;;;;;;;;;;4829976;29;20486;-89
2021/01/15 12:00:32;;;;;;;11.73;9.30;;;;;;;;;;4829954;29;20186;-85
2021/01/15 12:03:02;;;;;;;13.63;9.60;;;;;;;;;;4829598;29;20565;-87
2021/01/15 12:05:29;;;;;;;13.65;9.98;;;;;;;;;;4829832;29;20202;-89
2021/01/15 12:07:56;;;;;;;12.80;10.10;;;;;;;;;;4827825;29;20220;-88
2021/01/15 12:10:23;;;;;;;15.15;10.27;;;;;;;;;;4829884;29;20579;-89
2021/01/15 12:12:50;;;;;;;13.70;10.18;;;;;;;;;;4829688;29;20269;-88
2021/01/15 12:15:17;;;;;;;12.75;10.60;;;;;;;;;;4829764;29;20564;-90
2021/01/15 12:17:53;;;;;;;12.93;9.02;;;;;;;;;;4821719;29;20216;-90
2021/01/15 12:20:21;;;;;;;13.80;10.23;;;;;;;;;;4803991;29;20207;-90
2021/01/15 12:22:49;;;;;;;10.25;9.02;;;;;;;;;;4811451;29;20259;-89
2021/01/15 12:25:16;;;;;;;11.90;9.07;;;;;;;;;;4821612;29;20568;-89
2021/01/15 12:27:43;;;;;;;13.82;10.25;;;;;;;;;;4829989;29;20226;-89
2021/01/15 12:30:12;;;;;;;13.32;9.85;;;;;;;;;;4830267;29;20190;-90
2021/01/15 12:32:39;;;;;;;13.07;10.25;;;;;;;;;;4829649;29;20274;-90
2021/01/15 12:35:08;;;;;;;12.95;10.00;;;;;;;;;;4830164;29;20210;-88
2021/01/15 12:37:37;;;;;;;15.30;11.05;;;;;;;;;;4829593;29;20248;-89
2021/01/15 12:40:07;;;;;;;13.70;10.43;;;;;;;;;;4829855;29;20286;-88
2021/01/15 12:42:34;;;;;;;14.73;10.55;;;;;;;;;;4828919;29;20197;-90
2021/01/15 12:45:01;;;;;;;15.82;10.93;;;;;;;;;;4830187;29;20221;-89
2021/01/15 12:47:28;;;;;;;13.80;11.52;;;;;;;;;;4838014;29;20272;-90
2021/01/15 12:49:56;;;;;;;15.90;11.32;;;;;;;;;;4829433;29;20198;-90
2021/01/15 12:52:23;;;;;;;13.00;10.02;;;;;;;;;;4829213;29;20190;-89
2021/01/15 12:54:50;;;;;;;12.68;9.98;;;;;;;;;;4829761;29;20286;-89
2021/01/15 12:57:17;;;;;;;14.65;10.20;;;;;;;;;;4828999;29;20482;-92
2021/01/15 12:59:44;;;;;;;14.50;10.57;;;;;;;;;;4829286;29;20214;-90
2021/01/15 13:02:11;;;;;;;12.38;10.02;;;;;;;;;;4829125;29;20251;-89
2021/01/15 13:04:38;;;;;;;17.83;12.25;;;;;;;;;;4829382;29;20584;-90
2021/01/15 13:07:05;;;;;;;13.43;11.77;;;;;;;;;;4829271;29;20556;-90
2021/01/15 13:09:32;;;;;;;12.50;10.93;;;;;;;;;;4829530;29;20209;-91
2021/01/15 13:12:00;;;;;;;13.25;10.30;;;;;;;;;;4829176;29;20190;-90
2021/01/15 13:14:27;;;;;;;13.07;9.95;;;;;;;;;;4829187;29;20190;-91
2021/01/15 13:16:54;;;;;;;14.77;10.15;;;;;;;;;;4829435;29;20190;-91
2021/01/15 13:19:21;;;;;;;14.52;10.98;;;;;;;;;;4829591;29;20237;-91
2021/01/15 13:21:49;;;;;;;14.77;11.90;;;;;;;;;;4829109;29;20186;-91
2021/01/15 13:24:16;;;;;;;14.50;10.90;;;;;;;;;;4830058;29;20188;-90
2021/01/15 13:26:47;;;;;;;13.75;10.32;;;;;;;;;;4831285;29;20239;-91
2021/01/15 13:29:15;;;;;;;13.32;9.50;;;;;;;;;;4829363;29;20555;-90
2021/01/15 13:31:42;;;;;;;11.43;9.73;;;;;;;;;;4829234;29;20528;-90
2021/01/15 13:34:09;;;;;;;12.98;10.75;;;;;;;;;;4828881;29;20259;-90
2021/01/15 13:36:36;;;;;;;14.20;9.80;;;;;;;;;;4829224;29;20529;-91
2021/01/15 13:39:03;;;;;;;12.65;9.30;;;;;;;;;;4829806;29;20225;-91
2021/01/15 13:41:30;;;;;;;11.40;7.97;;;;;;;;;;4828874;29;20482;-89
2021/01/15 13:43:57;;;;;;;11.23;8.20;;;;;;;;;;4783254;29;20205;-90
2021/01/15 13:46:25;;;;;;;12.35;7.60;;;;;;;;;;4829182;29;20190;-91
2021/01/15 13:48:53;;;;;;;10.63;8.32;;;;;;;;;;4828874;29;20194;-91
2021/01/15 13:51:19;;;;;;;12.95;9.70;;;;;;;;;;4829225;29;20206;-91
2021/01/15 13:53:48;;;;;;;9.95;7.78;;;;;;;;;;4831348;29;20483;-90
2021/01/15 13:56:15;;;;;;;10.75;9.23;;;;;;;;;;4832354;29;20513;-91
2021/01/15 13:58:42;;;;;;;9.73;6.68;;;;;;;;;;4831932;29;20241;-90
2021/01/15 14:01:09;;;;;;;10.00;8.38;;;;;;;;;;4831926;29;20553;-91
2021/01/15 14:03:37;;;;;;;10.02;8.30;;;;;;;;;;4832107;29;20194;-90
2021/01/15 14:06:05;;;;;;;11.40;8.38;;;;;;;;;;4831878;29;20465;-90
2021/01/15 14:08:32;;;;;;;11.85;9.98;;;;;;;;;;4832467;29;20220;-91
2021/01/15 14:10:59;;;;;;;13.05;9.68;;;;;;;;;;4831831;29;20201;-91
2021/01/15 14:13:27;;;;;;;9.55;7.78;;;;;;;;;;4831576;29;20215;-90
2021/01/15 14:15:54;;;;;;;11.93;8.65;;;;;;;;;;4832018;29;20194;-91
2021/01/15 14:18:21;;;;;;;11.82;9.32;;;;;;;;;;4831880;29;20198;-89
2021/01/15 14:20:48;;;;;;;11.95;9.73;;;;;;;;;;4831578;29;20489;-90
2021/01/15 14:23:15;;;;;;;13.07;9.48;;;;;;;;;;4786229;29;20242;-91
2021/01/15 14:25:42;;;;;;;10.43;9.00;;;;;;;;;;4831730;29;20201;-91
2021/01/15 14:28:09;;;;;;;11.18;9.48;;;;;;;;;;4831926;29;20240;-91
2021/01/15 14:30:36;;;;;;;13.80;8.93;;;;;;;;;;4831557;29;20284;-92
2021/01/15 14:33:03;;;;;;;13.20;9.80;;;;;;;;;;4831697;29;20198;-91
2021/01/15 14:35:30;;;;;;;12.60;9.70;;;;;;;;;;4831712;29;20194;-92
2021/01/15 14:37:59;;;;;;;11.40;9.30;;;;;;;;;;4831962;29;20543;-94
2021/01/15 14:40:26;;;;;;;11.63;8.88;;;;;;;;;;4831578;29;20237;-92
2021/01/15 14:42:54;;;;;;;12.30;9.38;;;;;;;;;;4833013;29;20560;-93